createdAt,value
2023-11-10T00:00:50.130Z,979.61
2023-11-10T00:01:50.068Z,979.62
2023-11-10T00:02:50.106Z,979.56
2023-11-10T00:03:50.275Z,979.56
2023-11-10T00:04:50.256Z,979.47
2023-11-10T00:05:50.185Z,979.48
2023-11-10T00:06:50.034Z,979.48
2023-11-10T00:07:50.025Z,979.42
2023-11-10T00:08:50.042Z,979.45
2023-11-10T00:09:50.008Z,979.47
2023-11-10T00:10:49.996Z,979.44
2023-11-10T00:11:49.993Z,979.41
2023-11-10T00:12:49.988Z,979.36
2023-11-10T00:13:52.362Z,979.40
2023-11-10T00:14:50.980Z,979.32
2023-11-10T00:15:50.051Z,979.32
2023-11-10T00:16:49.951Z,979.35
2023-11-10T00:17:49.999Z,979.33
2023-11-10T00:18:49.970Z,979.36
2023-11-10T00:19:49.931Z,979.40
2023-11-10T00:20:49.935Z,979.34
2023-11-10T00:21:49.919Z,979.37
2023-11-10T00:22:49.945Z,979.29
2023-11-10T00:23:49.903Z,979.33
2023-11-10T00:24:49.900Z,979.31
2023-11-10T00:25:49.904Z,979.36
2023-11-10T00:26:49.883Z,979.31
2023-11-10T00:27:49.910Z,979.34
2023-11-10T00:28:49.869Z,979.19
2023-11-10T00:29:49.863Z,979.13
2023-11-10T00:30:49.847Z,979.15
2023-11-10T00:31:49.841Z,979.17
2023-11-10T00:32:49.999Z,979.04
2023-11-10T00:33:49.890Z,979.05
2023-11-10T00:34:49.830Z,979.14
2023-11-10T00:35:49.813Z,979.06
2023-11-10T00:36:49.828Z,979.15
2023-11-10T00:37:49.817Z,979.22
2023-11-10T00:38:49.782Z,979.22
2023-11-10T00:39:49.816Z,979.08
2023-11-10T00:40:49.801Z,979.17
2023-11-10T00:41:49.788Z,979.17
2023-11-10T00:42:49.868Z,979.27
2023-11-10T00:43:49.745Z,979.22
2023-11-10T00:44:49.741Z,979.22
2023-11-10T00:45:49.757Z,979.16
2023-11-10T00:46:49.761Z,979.25
2023-11-10T00:47:49.784Z,979.28
2023-11-10T00:48:49.742Z,979.31
2023-11-10T00:49:49.705Z,979.28
2023-11-10T00:50:49.692Z,979.29
2023-11-10T00:51:49.707Z,979.22
2023-11-10T00:52:49.694Z,979.29
2023-11-10T00:53:49.673Z,979.26
2023-11-10T00:54:49.817Z,979.22
2023-11-10T00:55:49.661Z,979.28
2023-11-10T00:56:49.681Z,979.25
2023-11-10T00:57:49.725Z,979.21
2023-11-10T00:58:49.635Z,979.26
2023-11-10T00:59:49.638Z,979.20
2023-11-10T01:00:49.705Z,979.23
2023-11-10T01:01:49.680Z,979.22
2023-11-10T01:02:49.721Z,979.19
2023-11-10T01:03:49.706Z,979.26
2023-11-10T01:04:49.597Z,979.21
2023-11-10T01:05:49.578Z,979.11
2023-11-10T01:06:49.756Z,979.14
2023-11-10T01:07:49.652Z,979.13
2023-11-10T01:08:49.563Z,979.06
2023-11-10T01:09:49.562Z,979.07
2023-11-10T01:10:49.610Z,979.00
2023-11-10T01:11:49.552Z,978.98
2023-11-10T01:12:49.533Z,979.00
2023-11-10T01:13:49.529Z,978.94
2023-11-10T01:14:49.520Z,979.00
2023-11-10T01:15:49.547Z,979.02
2023-11-10T01:16:49.575Z,979.03
2023-11-10T01:17:49.532Z,979.06
2023-11-10T01:18:49.596Z,979.09
2023-11-10T01:19:49.483Z,979.06
2023-11-10T01:20:49.494Z,979.11
2023-11-10T01:21:49.551Z,979.15
2023-11-10T01:22:49.460Z,979.12
2023-11-10T01:23:49.444Z,979.09
2023-11-10T01:24:49.504Z,979.11
2023-11-10T01:25:49.463Z,979.11
2023-11-10T01:26:49.428Z,979.08
2023-11-10T01:27:49.423Z,979.00
2023-11-10T01:28:49.418Z,979.05
2023-11-10T01:29:49.427Z,979.05
2023-11-10T01:30:49.429Z,979.04
2023-11-10T01:31:49.389Z,979.09
2023-11-10T01:32:49.434Z,979.15
2023-11-10T01:33:49.465Z,979.16
2023-11-10T01:34:49.430Z,979.18
2023-11-10T01:35:49.358Z,979.20
2023-11-10T01:36:49.412Z,979.21
2023-11-10T01:37:49.349Z,979.25
2023-11-10T01:38:49.335Z,979.20
2023-11-10T01:39:49.372Z,979.24
2023-11-10T01:40:49.318Z,979.21
2023-11-10T01:41:49.309Z,979.27
2023-11-10T01:42:49.313Z,979.22
2023-11-10T01:43:49.310Z,979.19
2023-11-10T01:44:49.313Z,979.08
2023-11-10T01:45:49.299Z,979.13
2023-11-10T01:46:49.861Z,979.12
2023-11-10T01:47:49.265Z,979.15
2023-11-10T01:48:49.328Z,979.14
2023-11-10T01:49:49.277Z,979.14
2023-11-10T01:50:49.237Z,979.19
2023-11-10T01:51:49.257Z,979.18
2023-11-10T01:52:49.225Z,979.14
2023-11-10T01:53:49.216Z,979.16
2023-11-10T01:54:49.290Z,979.14
2023-11-10T01:55:49.196Z,979.12
2023-11-10T01:56:49.185Z,979.18
2023-11-10T01:57:49.199Z,979.20
2023-11-10T01:58:49.187Z,979.21
2023-11-10T01:59:49.202Z,979.18
2023-11-10T02:00:49.210Z,979.17
2023-11-10T02:01:49.281Z,979.19
2023-11-10T02:02:49.263Z,979.15
2023-11-10T02:03:49.246Z,979.05
2023-11-10T02:04:49.158Z,979.04
2023-11-10T02:05:49.136Z,979.00
2023-11-10T02:06:49.149Z,978.98
2023-11-10T02:07:49.108Z,978.96
2023-11-10T02:08:49.098Z,978.90
2023-11-10T02:09:49.192Z,978.96
2023-11-10T02:10:49.087Z,978.90
2023-11-10T02:11:49.078Z,978.91
2023-11-10T02:12:49.068Z,978.89
2023-11-10T02:13:49.089Z,978.85
2023-11-10T02:14:49.114Z,978.84
2023-11-10T02:15:49.194Z,978.84
2023-11-10T02:16:49.044Z,978.79
2023-11-10T02:17:49.089Z,978.67
2023-11-10T02:18:49.135Z,978.69
2023-11-10T02:19:49.013Z,978.59
2023-11-10T02:20:49.019Z,978.70
2023-11-10T02:21:49.083Z,978.67
2023-11-10T02:22:49.025Z,978.65
2023-11-10T02:23:49.019Z,978.66
2023-11-10T02:24:49.025Z,978.66
2023-11-10T02:25:49.010Z,978.67
2023-11-10T02:26:48.958Z,978.71
2023-11-10T02:27:48.990Z,978.66
2023-11-10T02:28:48.984Z,978.59
2023-11-10T02:29:48.942Z,978.64
2023-11-10T02:30:48.980Z,978.69
2023-11-10T02:31:48.928Z,978.62
2023-11-10T02:32:48.985Z,978.70
2023-11-10T02:33:48.980Z,978.67
2023-11-10T02:34:48.898Z,978.66
2023-11-10T02:35:48.896Z,978.70
2023-11-10T02:36:48.963Z,978.72
2023-11-10T02:37:48.909Z,978.66
2023-11-10T02:38:48.900Z,978.73
2023-11-10T02:39:48.939Z,978.74
2023-11-10T02:40:48.917Z,978.70
2023-11-10T02:41:48.861Z,978.73
2023-11-10T02:42:48.997Z,978.76
2023-11-10T02:43:48.858Z,978.78
2023-11-10T02:44:48.823Z,978.84
2023-11-10T02:45:48.933Z,978.77
2023-11-10T02:46:48.813Z,978.75
2023-11-10T02:47:48.901Z,978.76
2023-11-10T02:48:48.884Z,978.73
2023-11-10T02:49:48.792Z,978.77
2023-11-10T02:50:48.785Z,978.71
2023-11-10T02:51:48.816Z,978.76
2023-11-10T02:52:48.793Z,978.76
2023-11-10T02:53:48.757Z,978.72
2023-11-10T02:54:48.741Z,978.71
2023-11-10T02:55:48.756Z,978.71
2023-11-10T02:56:48.735Z,978.71
2023-11-10T02:57:48.790Z,978.75
2023-11-10T02:58:48.721Z,978.76
2023-11-10T02:59:48.716Z,978.71
2023-11-10T03:00:48.719Z,978.69
2023-11-10T03:01:48.768Z,978.70
2023-11-10T03:02:48.745Z,978.69
2023-11-10T03:03:48.731Z,978.67
2023-11-10T03:04:48.674Z,978.62
2023-11-10T03:05:48.674Z,978.58
2023-11-10T03:06:48.713Z,978.51
2023-11-10T03:07:48.649Z,978.49
2023-11-10T03:08:48.656Z,978.45
2023-11-10T03:09:48.654Z,978.49
2023-11-10T03:10:48.635Z,978.44
2023-11-10T03:11:48.644Z,978.48
2023-11-10T03:12:48.634Z,978.51
2023-11-10T03:13:48.600Z,978.49
2023-11-10T03:14:48.600Z,978.48
2023-11-10T03:15:48.639Z,978.42
2023-11-10T03:16:48.617Z,978.43
2023-11-10T03:17:48.666Z,978.43
2023-11-10T03:18:48.673Z,978.51
2023-11-10T03:19:48.565Z,978.43
2023-11-10T03:20:48.616Z,978.57
2023-11-10T03:21:48.566Z,978.53
2023-11-10T03:22:48.561Z,978.51
2023-11-10T03:23:48.532Z,978.50
2023-11-10T03:24:48.538Z,978.59
2023-11-10T03:25:48.547Z,978.53
2023-11-10T03:26:48.513Z,978.58
2023-11-10T03:27:48.573Z,978.65
2023-11-10T03:28:48.537Z,978.65
2023-11-10T03:29:48.516Z,978.61
2023-11-10T03:30:48.547Z,978.63
2023-11-10T03:31:48.494Z,978.62
2023-11-10T03:32:48.487Z,978.61
2023-11-10T03:33:48.504Z,978.68
2023-11-10T03:34:48.486Z,978.70
2023-11-10T03:35:48.479Z,978.69
2023-11-10T03:36:48.493Z,978.72
2023-11-10T03:37:48.425Z,978.66
2023-11-10T03:38:48.423Z,978.70
2023-11-10T03:39:48.468Z,978.66
2023-11-10T03:40:48.436Z,978.75
2023-11-10T03:41:48.411Z,978.64
2023-11-10T03:42:48.428Z,978.73
2023-11-10T03:43:48.426Z,978.73
2023-11-10T03:44:48.407Z,978.71
2023-11-10T03:45:48.514Z,978.63
2023-11-10T03:46:48.385Z,978.67
2023-11-10T03:47:48.402Z,978.66
2023-11-10T03:48:48.424Z,978.71
2023-11-10T03:49:48.337Z,978.63
2023-11-10T03:50:48.343Z,978.72
2023-11-10T03:51:48.373Z,978.73
2023-11-10T03:52:48.317Z,978.73
2023-11-10T03:53:48.339Z,978.75
2023-11-10T03:54:48.331Z,978.73
2023-11-10T03:55:48.296Z,978.74
2023-11-10T03:56:48.287Z,978.74
2023-11-10T03:57:48.373Z,978.73
2023-11-10T03:58:48.297Z,978.68
2023-11-10T03:59:48.256Z,978.68
2023-11-10T04:00:49.497Z,978.72
2023-11-10T04:01:49.257Z,978.72
2023-11-10T04:02:48.333Z,978.68
2023-11-10T04:03:48.294Z,978.65
2023-11-10T04:04:48.239Z,978.66
2023-11-10T04:05:48.223Z,978.65
2023-11-10T04:06:48.245Z,978.55
2023-11-10T04:07:48.311Z,978.63
2023-11-10T04:08:48.213Z,978.62
2023-11-10T04:09:48.263Z,978.61
2023-11-10T04:10:48.177Z,978.51
2023-11-10T04:11:48.188Z,978.49
2023-11-10T04:12:48.226Z,978.49
2023-11-10T04:13:48.165Z,978.53
2023-11-10T04:14:48.145Z,978.41
2023-11-10T04:15:49.429Z,978.41
2023-11-10T04:16:49.166Z,978.45
2023-11-10T04:17:48.171Z,978.54
2023-11-10T04:18:48.186Z,978.41
2023-11-10T04:19:48.127Z,978.45
2023-11-10T04:20:48.106Z,978.44
2023-11-10T04:21:48.125Z,978.46
2023-11-10T04:22:48.139Z,978.41
2023-11-10T04:23:48.096Z,978.40
2023-11-10T04:24:48.175Z,978.37
2023-11-10T04:25:48.072Z,978.43
2023-11-10T04:26:48.074Z,978.41
2023-11-10T04:27:49.116Z,978.44
2023-11-10T04:28:48.054Z,978.40
2023-11-10T04:29:48.043Z,978.41
2023-11-10T04:30:48.160Z,978.38
2023-11-10T04:31:49.099Z,978.38
2023-11-10T04:32:50.526Z,978.34
2023-11-10T04:33:48.144Z,978.39
2023-11-10T04:34:50.572Z,978.48
2023-11-10T04:35:49.004Z,978.52
2023-11-10T04:36:48.086Z,978.45
2023-11-10T04:37:47.979Z,978.48
2023-11-10T04:38:47.976Z,978.44
2023-11-10T04:39:48.007Z,978.47
2023-11-10T04:40:47.961Z,978.54
2023-11-10T04:41:48.002Z,978.55
2023-11-10T04:42:47.990Z,978.60
2023-11-10T04:43:47.928Z,978.46
2023-11-10T04:44:47.924Z,978.51
2023-11-10T04:45:47.948Z,978.47
2023-11-10T04:46:47.973Z,978.51
2023-11-10T04:47:47.927Z,978.47
2023-11-10T04:48:47.919Z,978.47
2023-11-10T04:49:47.907Z,978.44
2023-11-10T04:50:47.898Z,978.48
2023-11-10T04:51:47.919Z,978.41
2023-11-10T04:52:47.862Z,978.34
2023-11-10T04:53:47.860Z,978.37
2023-11-10T04:54:47.895Z,978.42
2023-11-10T04:55:47.864Z,978.37
2023-11-10T04:56:47.840Z,978.28
2023-11-10T04:57:47.861Z,978.37
2023-11-10T04:58:47.816Z,978.32
2023-11-10T04:59:47.811Z,978.35
2023-11-10T05:00:47.854Z,978.32
2023-11-10T05:01:47.853Z,978.37
2023-11-10T05:02:48.806Z,978.33
2023-11-10T05:03:47.844Z,978.31
2023-11-10T05:04:47.778Z,978.33
2023-11-10T05:05:47.852Z,978.34
2023-11-10T05:06:47.798Z,978.31
2023-11-10T05:07:47.739Z,978.30
2023-11-10T05:08:48.745Z,978.38
2023-11-10T05:09:47.738Z,978.35
2023-11-10T05:10:47.782Z,978.32
2023-11-10T05:11:47.725Z,978.35
2023-11-10T05:12:47.747Z,978.35
2023-11-10T05:13:47.709Z,978.32
2023-11-10T05:14:47.728Z,978.37
2023-11-10T05:15:47.744Z,978.36
2023-11-10T05:16:47.747Z,978.36
2023-11-10T05:17:47.724Z,978.38
2023-11-10T05:19:48.680Z,978.26
2023-11-10T05:20:47.647Z,978.26
2023-11-10T05:21:47.684Z,978.30
2023-11-10T05:22:47.636Z,978.29
2023-11-10T05:23:47.628Z,978.33
2023-11-10T05:24:47.711Z,978.25
2023-11-10T05:25:47.613Z,978.25
2023-11-10T05:26:47.613Z,978.34
2023-11-10T05:27:47.659Z,978.41
2023-11-10T05:28:47.594Z,978.28
2023-11-10T05:29:47.610Z,978.26
2023-11-10T05:30:47.617Z,978.29
2023-11-10T05:31:47.612Z,978.35
2023-11-10T05:32:47.596Z,978.31
2023-11-10T05:33:47.583Z,978.28
2023-11-10T05:34:47.615Z,978.21
2023-11-10T05:35:47.542Z,978.26
2023-11-10T05:36:47.565Z,978.34
2023-11-10T05:37:47.541Z,978.36
2023-11-10T05:38:48.538Z,978.35
2023-11-10T05:39:47.566Z,978.37
2023-11-10T05:40:47.559Z,978.32
2023-11-10T05:41:47.497Z,978.40
2023-11-10T05:42:47.497Z,978.29
2023-11-10T05:43:47.504Z,978.39
2023-11-10T05:44:47.490Z,978.39
2023-11-10T05:45:47.491Z,978.43
2023-11-10T05:46:47.509Z,978.39
2023-11-10T05:47:47.486Z,978.39
2023-11-10T05:48:47.522Z,978.46
2023-11-10T05:49:47.441Z,978.46
2023-11-10T05:50:47.432Z,978.51
2023-11-10T05:51:47.497Z,978.40
2023-11-10T05:52:47.407Z,978.46
2023-11-10T05:53:48.452Z,978.41
2023-11-10T05:54:47.431Z,978.42
2023-11-10T05:55:47.402Z,978.50
2023-11-10T05:56:47.393Z,978.45
2023-11-10T05:57:47.427Z,978.41
2023-11-10T05:58:47.390Z,978.47
2023-11-10T05:59:47.392Z,978.41
2023-11-10T06:00:47.398Z,978.43
2023-11-10T06:01:47.425Z,978.31
2023-11-10T06:02:49.239Z,978.44
2023-11-10T06:03:47.410Z,978.41
2023-11-10T06:04:47.376Z,978.46
2023-11-10T06:05:47.333Z,978.51
2023-11-10T06:06:47.310Z,978.44
2023-11-10T06:07:47.331Z,978.47
2023-11-10T06:08:47.299Z,978.51
2023-11-10T06:09:47.340Z,978.45
2023-11-10T06:10:47.288Z,978.53
2023-11-10T06:11:55.025Z,978.55
2023-11-10T06:12:49.352Z,978.46
2023-11-10T06:13:47.256Z,978.46
2023-11-10T06:14:47.253Z,978.51
2023-11-10T06:15:47.276Z,978.55
2023-11-10T06:16:47.300Z,978.57
2023-11-10T06:17:47.271Z,978.62
2023-11-10T06:18:47.445Z,978.65
2023-11-10T06:19:47.207Z,978.65
2023-11-10T06:20:47.203Z,978.72
2023-11-10T06:21:47.254Z,978.72
2023-11-10T06:22:47.189Z,978.69
2023-11-10T06:23:47.190Z,978.73
2023-11-10T06:24:47.222Z,978.72
2023-11-10T06:25:47.171Z,978.73
2023-11-10T06:26:47.186Z,978.73
2023-11-10T06:27:47.220Z,978.74
2023-11-10T06:28:47.144Z,978.78
2023-11-10T06:29:47.132Z,978.76
2023-11-10T06:30:47.174Z,978.77
2023-11-10T06:31:47.148Z,978.77
2023-11-10T06:32:47.140Z,978.75
2023-11-10T06:33:47.128Z,978.72
2023-11-10T06:34:47.128Z,978.72
2023-11-10T06:35:47.097Z,978.74
2023-11-10T06:36:47.192Z,978.72
2023-11-10T06:37:47.072Z,978.80
2023-11-10T06:38:47.074Z,978.76
2023-11-10T06:39:47.106Z,978.83
2023-11-10T06:40:47.099Z,978.76
2023-11-10T06:41:47.075Z,978.87
2023-11-10T06:42:47.070Z,978.82
2023-11-10T06:43:47.030Z,978.80
2023-11-10T06:44:47.026Z,978.74
2023-11-10T06:45:47.104Z,978.75
2023-11-10T06:46:47.091Z,978.77
2023-11-10T06:47:47.062Z,978.76
2023-11-10T06:48:47.033Z,978.78
2023-11-10T06:49:46.982Z,978.71
2023-11-10T06:50:46.993Z,978.77
2023-11-10T06:51:47.013Z,978.79
2023-11-10T06:52:46.962Z,978.83
2023-11-10T06:53:46.948Z,978.87
2023-11-10T06:54:46.947Z,978.85
2023-11-10T06:55:46.964Z,978.87
2023-11-10T06:56:46.926Z,978.83
2023-11-10T06:57:46.939Z,978.88
2023-11-10T06:58:46.987Z,978.89
2023-11-10T06:59:46.902Z,978.85
2023-11-10T07:00:46.985Z,978.88
2023-11-10T07:01:46.919Z,978.93
2023-11-10T07:02:46.933Z,978.92
2023-11-10T07:03:46.984Z,978.91
2023-11-10T07:04:46.901Z,978.92
2023-11-10T07:05:46.949Z,978.97
2023-11-10T07:06:46.915Z,978.96
2023-11-10T07:07:46.841Z,978.94
2023-11-10T07:08:46.837Z,978.89
2023-11-10T07:09:46.911Z,978.92
2023-11-10T07:10:46.845Z,978.89
2023-11-10T07:11:46.807Z,978.95
2023-11-10T07:12:46.844Z,978.90
2023-11-10T07:13:46.829Z,978.88
2023-11-10T07:14:46.811Z,978.93
2023-11-10T07:15:46.977Z,978.87
2023-11-10T07:16:46.881Z,978.89
2023-11-10T07:17:46.836Z,978.95
2023-11-10T07:18:46.853Z,978.98
2023-11-10T07:19:46.781Z,978.91
2023-11-10T07:20:46.782Z,978.93
2023-11-10T07:21:46.866Z,978.95
2023-11-10T07:22:46.789Z,979.05
2023-11-10T07:23:46.745Z,979.01
2023-11-10T07:24:46.798Z,978.95
2023-11-10T07:25:46.738Z,979.00
2023-11-10T07:26:46.783Z,979.04
2023-11-10T07:27:46.790Z,979.05
2023-11-10T07:28:47.714Z,979.04
2023-11-10T07:29:46.676Z,979.06
2023-11-10T07:30:46.776Z,979.09
2023-11-10T07:31:46.795Z,979.05
2023-11-10T07:32:46.711Z,979.08
2023-11-10T07:33:46.763Z,979.11
2023-11-10T07:34:46.641Z,979.09
2023-11-10T07:35:46.701Z,979.11
2023-11-10T07:36:46.657Z,979.09
2023-11-10T07:37:46.716Z,979.16
2023-11-10T07:38:46.672Z,979.10
2023-11-10T07:39:46.682Z,979.12
2023-11-10T07:40:46.678Z,979.11
2023-11-10T07:41:46.685Z,979.09
2023-11-10T07:42:46.843Z,979.11
2023-11-10T07:43:46.658Z,979.15
2023-11-10T07:44:46.570Z,979.09
2023-11-10T07:45:46.692Z,979.14
2023-11-10T07:47:46.653Z,979.22
2023-11-10T07:48:46.574Z,979.09
2023-11-10T07:49:46.540Z,979.15
2023-11-10T07:50:46.533Z,979.15
2023-11-10T07:51:46.585Z,979.20
2023-11-10T07:52:46.558Z,979.26
2023-11-10T07:53:46.509Z,979.30
2023-11-10T07:54:46.566Z,979.30
2023-11-10T07:55:47.485Z,979.30
2023-11-10T07:56:46.510Z,979.33
2023-11-10T07:57:46.638Z,979.30
2023-11-10T07:58:46.457Z,979.23
2023-11-10T07:59:46.451Z,979.30
2023-11-10T08:00:46.466Z,979.26
2023-11-10T08:01:46.465Z,979.32
2023-11-10T08:02:46.455Z,979.33
2023-11-10T08:03:46.439Z,979.39
2023-11-10T08:04:46.508Z,979.38
2023-11-10T08:05:46.405Z,979.38
2023-11-10T08:06:46.482Z,979.47
2023-11-10T08:07:46.394Z,979.38
2023-11-10T08:08:46.389Z,979.43
2023-11-10T08:09:47.205Z,979.40
2023-11-10T08:10:46.416Z,979.34
2023-11-10T08:11:52.969Z,979.41
2023-11-10T08:12:47.404Z,979.36
2023-11-10T08:13:46.359Z,979.38
2023-11-10T08:14:46.382Z,979.42
2023-11-10T08:15:46.423Z,979.39
2023-11-10T08:16:49.133Z,979.33
2023-11-10T08:17:46.370Z,979.37
2023-11-10T08:18:46.325Z,979.42
2023-11-10T08:19:46.313Z,979.42
2023-11-10T08:20:46.325Z,979.37
2023-11-10T08:21:46.318Z,979.42
2023-11-10T08:22:46.289Z,979.44
2023-11-10T08:23:46.298Z,979.38
2023-11-10T08:24:46.321Z,979.44
2023-11-10T08:25:46.310Z,979.44
2023-11-10T08:26:46.249Z,979.44
2023-11-10T08:27:46.318Z,979.46
2023-11-10T08:28:46.223Z,979.50
2023-11-10T08:29:46.547Z,979.46
2023-11-10T08:30:46.247Z,979.52
2023-11-10T08:31:46.238Z,979.52
2023-11-10T08:32:46.218Z,979.59
2023-11-10T08:33:49.561Z,979.52
2023-11-10T08:34:47.204Z,979.55
2023-11-10T08:35:46.177Z,979.53
2023-11-10T08:36:46.175Z,979.60
2023-11-10T08:37:46.155Z,979.54
2023-11-10T08:38:46.147Z,979.51
2023-11-10T08:39:46.246Z,979.58
2023-11-10T08:40:46.147Z,979.53
2023-11-10T08:41:46.124Z,979.56
2023-11-10T08:42:46.181Z,979.54
2023-11-10T08:43:46.187Z,979.49
2023-11-10T08:44:46.138Z,979.50
2023-11-10T08:45:46.154Z,979.55
2023-11-10T08:46:46.256Z,979.50
2023-11-10T08:47:46.348Z,979.55
2023-11-10T08:48:47.120Z,979.48
2023-11-10T08:49:46.121Z,979.53
2023-11-10T08:50:46.056Z,979.51
2023-11-10T08:51:46.087Z,979.52
2023-11-10T08:52:46.043Z,979.47
2023-11-10T08:53:46.073Z,979.54
2023-11-10T08:54:46.117Z,979.48
2023-11-10T08:55:46.015Z,979.45
2023-11-10T08:56:46.021Z,979.45
2023-11-10T08:57:46.028Z,979.50
2023-11-10T08:58:46.028Z,979.50
2023-11-10T08:59:45.992Z,979.50
2023-11-10T09:00:46.077Z,979.51
2023-11-10T09:01:46.001Z,979.47
2023-11-10T09:02:45.985Z,979.54
2023-11-10T09:03:46.063Z,979.50
2023-11-10T09:04:45.976Z,979.54
2023-11-10T09:05:45.942Z,979.56
2023-11-10T09:06:45.989Z,979.54
2023-11-10T09:07:45.939Z,979.53
2023-11-10T09:08:45.953Z,979.55
2023-11-10T09:09:45.922Z,979.53
2023-11-10T09:10:45.917Z,979.51
2023-11-10T09:11:47.059Z,979.55
2023-11-10T09:12:45.955Z,979.41
2023-11-10T09:13:45.923Z,979.55
2023-11-10T09:14:45.898Z,979.46
2023-11-10T09:15:53.536Z,979.42
2023-11-10T09:16:47.940Z,979.48
2023-11-10T09:17:45.973Z,979.44
2023-11-10T09:18:45.914Z,979.47
2023-11-10T09:19:45.858Z,979.48
2023-11-10T09:20:45.855Z,979.49
2023-11-10T09:21:45.857Z,979.48
2023-11-10T09:22:46.017Z,979.48
2023-11-10T09:23:45.884Z,979.43
2023-11-10T09:24:45.906Z,979.47
2023-11-10T09:25:45.893Z,979.45
2023-11-10T09:26:45.873Z,979.47
2023-11-10T09:27:46.035Z,979.45
2023-11-10T09:28:45.859Z,979.50
2023-11-10T09:29:45.837Z,979.48
2023-11-10T09:30:45.777Z,979.50
2023-11-10T09:31:46.055Z,979.51
2023-11-10T09:32:45.803Z,979.52
2023-11-10T09:33:45.769Z,979.45
2023-11-10T09:34:45.738Z,979.38
2023-11-10T09:35:45.721Z,979.48
2023-11-10T09:36:45.739Z,979.40
2023-11-10T09:37:45.721Z,979.41
2023-11-10T09:38:45.716Z,979.36
2023-11-10T09:39:45.736Z,979.44
2023-11-10T09:40:45.674Z,979.45
2023-11-10T09:41:45.715Z,979.45
2023-11-10T09:42:45.718Z,979.49
2023-11-10T09:43:45.655Z,979.48
2023-11-10T09:44:45.640Z,979.41
2023-11-10T09:45:46.705Z,979.52
2023-11-10T09:46:45.723Z,979.57
2023-11-10T09:47:45.664Z,979.50
2023-11-10T09:48:45.666Z,979.51
2023-11-10T09:49:45.650Z,979.50
2023-11-10T09:50:45.594Z,979.47
2023-11-10T09:51:45.653Z,979.42
2023-11-10T09:52:45.586Z,979.54
2023-11-10T09:53:45.583Z,979.56
2023-11-10T09:54:45.580Z,979.58
2023-11-10T09:55:45.569Z,979.42
2023-11-10T09:56:45.579Z,979.48
2023-11-10T09:57:45.577Z,979.37
2023-11-10T09:58:45.543Z,979.48
2023-11-10T09:59:45.539Z,979.53
2023-11-10T10:00:45.562Z,979.28
2023-11-10T10:01:45.562Z,979.41
2023-11-10T10:02:46.651Z,979.36
2023-11-10T10:03:45.612Z,979.37
2023-11-10T10:04:45.501Z,979.35
2023-11-10T10:05:45.519Z,979.40
2023-11-10T10:06:45.544Z,979.34
2023-11-10T10:07:45.486Z,979.32
2023-11-10T10:08:45.471Z,979.31
2023-11-10T10:09:45.498Z,979.33
2023-11-10T10:10:45.483Z,979.33
2023-11-10T10:11:45.447Z,979.37
2023-11-10T10:12:45.479Z,979.29
2023-11-10T10:13:45.432Z,979.27
2023-11-10T10:14:45.426Z,979.38
2023-11-10T10:15:45.507Z,979.34
2023-11-10T10:16:45.436Z,979.33
2023-11-10T10:17:45.417Z,979.31
2023-11-10T10:18:45.427Z,979.33
2023-11-10T10:19:46.349Z,979.38
2023-11-10T10:20:45.404Z,979.32
2023-11-10T10:21:45.427Z,979.30
2023-11-10T10:22:45.351Z,979.24
2023-11-10T10:23:45.355Z,979.25
2023-11-10T10:24:45.378Z,979.27
2023-11-10T10:25:45.383Z,979.20
2023-11-10T10:26:45.337Z,979.17
2023-11-10T10:27:45.475Z,979.23
2023-11-10T10:28:45.324Z,979.19
2023-11-10T10:29:45.332Z,979.24
2023-11-10T10:30:45.346Z,979.08
2023-11-10T10:31:45.385Z,979.14
2023-11-10T10:32:45.325Z,979.15
2023-11-10T10:33:45.375Z,979.23
2023-11-10T10:34:45.333Z,979.15
2023-11-10T10:35:45.268Z,979.21
2023-11-10T10:36:45.289Z,979.15
2023-11-10T10:37:45.327Z,979.27
2023-11-10T10:38:45.272Z,979.21
2023-11-10T10:39:45.281Z,979.23
2023-11-10T10:40:45.224Z,979.20
2023-11-10T10:41:45.220Z,979.24
2023-11-10T10:42:45.386Z,979.21
2023-11-10T10:43:56.371Z,979.10
2023-11-10T10:44:46.218Z,979.11
2023-11-10T10:45:45.222Z,979.21
2023-11-10T10:46:45.321Z,979.17
2023-11-10T10:47:45.562Z,979.16
2023-11-10T10:48:45.204Z,979.16
2023-11-10T10:49:45.161Z,979.11
2023-11-10T10:50:45.144Z,979.19
2023-11-10T10:51:45.215Z,979.30
2023-11-10T10:52:45.138Z,979.21
2023-11-10T10:53:45.208Z,979.11
2023-11-10T10:54:45.157Z,979.20
2023-11-10T10:55:45.115Z,979.15
2023-11-10T10:56:46.048Z,979.17
2023-11-10T10:57:45.186Z,979.28
2023-11-10T10:58:45.126Z,979.18
2023-11-10T10:59:45.106Z,979.23
2023-11-10T11:00:45.088Z,979.18
2023-11-10T11:01:45.191Z,979.07
2023-11-10T11:02:45.249Z,979.14
2023-11-10T11:03:45.189Z,979.18
2023-11-10T11:04:45.094Z,979.18
2023-11-10T11:05:45.025Z,979.19
2023-11-10T11:06:45.061Z,979.15
2023-11-10T11:07:45.044Z,979.08
2023-11-10T11:08:45.014Z,979.13
2023-11-10T11:09:45.038Z,979.19
2023-11-10T11:10:44.990Z,979.08
2023-11-10T11:11:45.007Z,979.09
2023-11-10T11:12:45.056Z,979.12
2023-11-10T11:13:44.983Z,979.10
2023-11-10T11:14:44.977Z,978.99
2023-11-10T11:15:44.965Z,978.98
2023-11-10T11:16:45.004Z,979.08
2023-11-10T11:17:44.949Z,979.07
2023-11-10T11:18:44.944Z,979.01
2023-11-10T11:20:17.335Z,979.08
2023-11-10T11:20:44.913Z,979.04
2023-11-10T11:21:45.002Z,979.04
2023-11-10T11:22:44.932Z,978.97
2023-11-10T11:23:44.907Z,978.98
2023-11-10T11:24:44.919Z,978.98
2023-11-10T11:25:44.873Z,978.93
2023-11-10T11:26:44.885Z,978.97
2023-11-10T11:27:44.880Z,978.97
2023-11-10T11:28:44.861Z,978.94
2023-11-10T11:29:44.847Z,978.94
2023-11-10T11:30:44.919Z,978.95
2023-11-10T11:31:44.886Z,978.95
2023-11-10T11:32:45.836Z,978.95
2023-11-10T11:33:44.820Z,979.00
2023-11-10T11:34:44.802Z,979.01
2023-11-10T11:35:44.820Z,978.85
2023-11-10T11:36:44.937Z,978.92
2023-11-10T11:37:44.779Z,978.92
2023-11-10T11:38:44.791Z,978.95
2023-11-10T11:39:44.836Z,978.88
2023-11-10T11:40:44.786Z,978.93
2023-11-10T11:41:44.741Z,978.86
2023-11-10T11:42:44.811Z,978.89
2023-11-10T11:43:44.734Z,978.85
2023-11-10T11:44:44.724Z,978.90
2023-11-10T11:45:44.798Z,978.93
2023-11-10T11:46:44.753Z,978.88
2023-11-10T11:47:44.759Z,978.85
2023-11-10T11:48:44.726Z,978.90
2023-11-10T11:49:44.707Z,978.92
2023-11-10T11:50:44.693Z,978.95
2023-11-10T11:51:44.688Z,978.83
2023-11-10T11:52:44.706Z,978.85
2023-11-10T11:53:45.655Z,978.81
2023-11-10T11:54:44.688Z,978.84
2023-11-10T11:55:44.642Z,978.83
2023-11-10T11:56:44.632Z,978.84
2023-11-10T11:57:44.663Z,978.86
2023-11-10T11:58:44.648Z,978.85
2023-11-10T11:59:44.649Z,978.88
2023-11-10T12:00:44.646Z,978.86
2023-11-10T12:01:44.672Z,978.86
2023-11-10T12:02:44.611Z,978.93
2023-11-10T12:03:44.703Z,978.95
2023-11-10T12:04:44.621Z,978.90
2023-11-10T12:05:44.634Z,978.93
2023-11-10T12:06:44.634Z,978.89
2023-11-10T12:07:44.603Z,978.89
2023-11-10T12:08:44.629Z,978.93
2023-11-10T12:09:44.657Z,978.91
2023-11-10T12:10:44.612Z,978.91
2023-11-10T12:11:44.537Z,978.96
2023-11-10T12:12:44.662Z,978.85
2023-11-10T12:13:44.541Z,978.96
2023-11-10T12:14:44.507Z,978.87
2023-11-10T12:15:44.548Z,978.90
2023-11-10T12:16:44.562Z,978.85
2023-11-10T12:17:44.736Z,978.85
2023-11-10T12:18:44.524Z,978.85
2023-11-10T12:19:44.478Z,978.93
2023-11-10T12:20:44.466Z,978.85
2023-11-10T12:21:44.498Z,978.87
2023-11-10T12:22:44.534Z,978.82
2023-11-10T12:23:44.489Z,978.83
2023-11-10T12:24:44.441Z,978.85
2023-11-10T12:25:44.430Z,978.80
2023-11-10T12:26:44.430Z,978.78
2023-11-10T12:27:44.460Z,978.75
2023-11-10T12:28:44.411Z,978.78
2023-11-10T12:29:44.392Z,978.80
2023-11-10T12:30:44.465Z,978.85